Time;durP1;ratioP1;P1;durP2;ratioP2;P2;SDS_P1;SDS_P2;PMS_P1;PMS_P2;Temp;Humidity;BMP_temperature;BMP_pressure;BME280_temperature;BME280_humidity;BME280_pressure;Samples;Min_cycle;Max_cycle;Signal;HPM_P1;HPM_P2
2022/12/07 00:01:19;;;;;;;175.23;88.87;;;3.90;99.90;;;;;;5089406;28;20258;-52
2022/12/07 00:03:48;;;;;;;67.40;44.03;;;3.90;99.90;;;;;;5088423;28;20254;-53
2022/12/07 00:06:19;;;;;;;102.37;71.37;;;3.90;99.90;;;;;;5071603;28;20211;-52
2022/12/07 00:08:48;;;;;;;99.33;56.63;;;3.90;99.90;;;;;;5085588;28;20342;-51
2022/12/07 00:11:17;;;;;;;81.30;53.77;;;3.90;99.90;;;;;;5066828;28;20686;-52
2022/12/07 00:13:46;;;;;;;160.87;84.53;;;3.90;99.90;;;;;;5083096;28;20222;-52
2022/12/07 00:16:17;;;;;;;87.77;45.60;;;3.90;99.90;;;;;;5088109;28;20649;-52
2022/12/07 00:18:46;;;;;;;72.47;54.13;;;3.90;99.90;;;;;;5084609;28;20699;-52
2022/12/07 00:21:16;;;;;;;67.03;58.47;;;3.90;99.90;;;;;;5091287;28;20674;-52
2022/12/07 00:23:46;;;;;;;133.33;57.40;;;3.90;99.90;;;;;;5092506;28;20295;-53
2022/12/07 00:26:17;;;;;;;66.03;51.67;;;3.90;99.90;;;;;;5084820;28;20248;-52
2022/12/07 00:28:48;;;;;;;49.10;35.67;;;3.90;99.90;;;;;;5078864;28;20662;-50
2022/12/07 00:31:17;;;;;;;58.43;49.40;;;3.90;99.90;;;;;;5092751;28;20307;-51
2022/12/07 00:33:46;;;;;;;170.17;78.30;;;3.90;99.90;;;;;;5092505;28;20618;-52
2022/12/07 00:36:17;;;;;;;107.83;68.97;;;3.90;99.90;;;;;;5091636;28;20252;-52
2022/12/07 00:38:54;;;;;;;65.17;47.57;;;3.80;99.90;;;;;;5092799;28;20228;-52
2022/12/07 00:41:24;;;;;;;77.43;45.87;;;3.90;99.90;;;;;;5092820;28;20697;-52
2022/12/07 00:43:53;;;;;;;76.23;60.63;;;4.00;99.90;;;;;;5069579;28;20332;-53
2022/12/07 00:46:22;;;;;;;90.07;53.70;;;3.90;99.90;;;;;;5089251;28;20314;-52
2022/12/07 00:48:51;;;;;;;91.67;54.50;;;3.90;99.90;;;;;;5086957;28;20280;-51
2022/12/07 00:51:21;;;;;;;75.13;57.40;;;3.90;99.90;;;;;;5092550;28;20230;-50
2022/12/07 00:53:50;;;;;;;55.63;40.73;;;3.90;99.90;;;;;;5091744;28;20697;-52
2022/12/07 00:56:21;;;;;;;63.73;46.43;;;3.90;99.90;;;;;;5092013;28;20294;-51
2022/12/07 00:58:54;;;;;;;100.80;53.97;;;3.90;99.90;;;;;;5091936;28;20707;-52
2022/12/07 01:01:22;;;;;;;83.43;53.03;;;3.90;99.90;;;;;;5091260;28;20227;-51
2022/12/07 01:03:50;;;;;;;73.73;48.17;;;3.80;99.90;;;;;;5090018;28;20206;-51
2022/12/07 01:06:20;;;;;;;73.97;50.40;;;3.80;99.90;;;;;;5092132;28;20310;-52
2022/12/07 01:08:49;;;;;;;146.33;76.40;;;3.80;99.90;;;;;;5089622;28;20240;-52
2022/12/07 01:11:21;;;;;;;71.60;51.10;;;3.90;99.90;;;;;;5076651;28;20252;-51
2022/12/07 01:13:51;;;;;;;102.03;63.47;;;3.80;99.90;;;;;;5069545;28;20230;-52
2022/12/07 01:16:20;;;;;;;147.57;70.77;;;3.90;99.90;;;;;;5091745;28;20294;-51
2022/12/07 01:18:49;;;;;;;79.23;53.33;;;3.90;99.90;;;;;;5092283;28;20227;-52
2022/12/07 01:21:20;;;;;;;75.57;54.90;;;3.80;99.90;;;;;;5063417;28;20219;-52
2022/12/07 01:23:49;;;;;;;121.63;53.83;;;3.80;99.90;;;;;;5089967;28;20215;-52
2022/12/07 01:26:19;;;;;;;66.10;46.37;;;3.90;99.90;;;;;;5079028;28;20299;-51
2022/12/07 01:28:48;;;;;;;61.90;47.90;;;3.90;99.90;;;;;;5089981;28;20671;-53
2022/12/07 01:31:19;;;;;;;67.53;49.63;;;3.90;99.90;;;;;;5092083;28;20273;-52
2022/12/07 01:33:49;;;;;;;72.43;49.30;;;3.90;99.90;;;;;;5090664;28;20580;-52
2022/12/07 01:36:19;;;;;;;121.23;65.30;;;3.90;99.90;;;;;;5092323;28;20230;-52
2022/12/07 01:38:51;;;;;;;60.73;46.87;;;4.00;99.90;;;;;;5091317;28;20311;-51
2022/12/07 01:41:20;;;;;;;273.17;90.73;;;4.00;99.90;;;;;;5076731;28;20640;-52
2022/12/07 01:44:25;;;;;;;113.37;76.37;;;3.90;99.90;;;;;;5086738;28;20210;-52
2022/12/07 01:46:56;;;;;;;113.87;61.93;;;4.00;99.90;;;;;;5091851;28;20279;-51
2022/12/07 01:49:29;;;;;;;74.87;52.13;;;4.00;99.90;;;;;;5091698;28;20316;-52
2022/12/07 01:52:05;;;;;;;98.53;52.50;;;3.90;99.90;;;;;;5090938;28;20309;-52
2022/12/07 01:54:35;;;;;;;70.53;46.97;;;4.00;99.90;;;;;;5086079;28;20206;-52
2022/12/07 01:57:05;;;;;;;79.33;56.27;;;3.90;99.90;;;;;;5091169;28;20204;-51
2022/12/07 01:59:34;;;;;;;77.40;55.73;;;4.00;99.90;;;;;;5078746;28;20259;-51
2022/12/07 02:02:08;;;;;;;58.57;46.37;;;4.10;99.90;;;;;;5078409;28;20289;-52
2022/12/07 02:04:37;;;;;;;84.20;61.50;;;4.10;99.90;;;;;;5065030;28;20909;-51
2022/12/07 02:07:07;;;;;;;112.03;48.57;;;4.10;99.90;;;;;;5090851;28;20253;-52
2022/12/07 02:09:35;;;;;;;57.50;39.93;;;4.10;99.90;;;;;;5060812;28;20604;-52
2022/12/07 02:12:03;;;;;;;85.47;56.40;;;4.10;99.90;;;;;;5067104;28;20234;-52
2022/12/07 02:14:31;;;;;;;76.97;57.70;;;4.10;99.90;;;;;;5090883;28;20289;-52
2022/12/07 02:17:12;;;;;;;71.67;56.33;;;4.10;99.90;;;;;;5085866;28;20638;-52
2022/12/07 02:20:16;;;;;;;66.77;47.60;;;4.10;99.90;;;;;;5060525;28;20253;-52
2022/12/07 02:23:05;;;;;;;78.43;53.10;;;4.10;99.90;;;;;;5086758;28;20736;-52
2022/12/07 02:25:53;;;;;;;67.37;39.87;;;4.20;99.90;;;;;;5045093;28;20293;-51
2022/12/07 02:28:31;;;;;;;63.03;46.37;;;4.20;99.90;;;;;;5090167;28;20255;-53
2022/12/07 02:31:07;;;;;;;89.13;57.10;;;4.20;99.90;;;;;;5090730;28;20306;-52
2022/12/07 02:33:40;;;;;;;174.80;69.10;;;4.20;99.90;;;;;;5089952;28;20203;-51
2022/12/07 02:36:13;;;;;;;86.00;58.37;;;4.20;99.90;;;;;;5085382;28;20299;-52
2022/12/07 02:38:48;;;;;;;59.07;49.10;;;4.30;99.90;;;;;;5089914;28;20832;-51
2022/12/07 02:41:22;;;;;;;50.77;37.60;;;4.40;99.90;;;;;;5080538;28;20311;-52
2022/12/07 02:43:55;;;;;;;70.03;48.77;;;4.50;99.90;;;;;;5089228;28;20284;-52
2022/12/07 02:46:29;;;;;;;64.53;49.77;;;4.40;99.90;;;;;;5090132;28;20669;-52
2022/12/07 02:48:59;;;;;;;62.63;41.17;;;4.40;99.90;;;;;;5090005;28;20219;-52
2022/12/07 02:51:30;;;;;;;67.27;57.93;;;4.40;99.90;;;;;;5090228;28;20224;-52
2022/12/07 02:53:58;;;;;;;62.40;47.27;;;4.40;99.90;;;;;;5089576;28;20237;-52
2022/12/07 02:56:31;;;;;;;62.90;48.17;;;4.40;99.90;;;;;;5082713;28;20291;-51
2022/12/07 02:59:11;;;;;;;88.70;56.37;;;4.40;99.90;;;;;;5086833;28;20259;-51
2022/12/07 03:01:50;;;;;;;121.97;53.70;;;4.50;99.90;;;;;;5080174;28;20732;-51
2022/12/07 03:04:34;;;;;;;53.63;38.93;;;4.50;99.90;;;;;;5089544;28;20208;-53
2022/12/07 03:07:12;;;;;;;92.90;55.37;;;4.50;99.90;;;;;;5087543;28;20360;-51
2022/12/07 03:09:46;;;;;;;57.03;44.90;;;4.40;99.90;;;;;;5063029;28;20307;-52
2022/12/07 03:12:19;;;;;;;62.23;43.80;;;4.40;99.90;;;;;;5068619;28;20240;-53
2022/12/07 03:14:54;;;;;;;53.13;41.93;;;4.40;99.90;;;;;;5069171;28;20681;-51
2022/12/07 03:17:28;;;;;;;62.10;48.77;;;4.40;99.90;;;;;;5069599;28;20258;-52
2022/12/07 03:20:01;;;;;;;89.17;61.97;;;4.40;99.90;;;;;;5069358;28;20260;-52
2022/12/07 03:22:35;;;;;;;66.60;50.97;;;4.50;99.90;;;;;;5068951;28;20668;-53
2022/12/07 03:25:07;;;;;;;109.53;72.03;;;4.50;99.90;;;;;;5066681;28;20688;-52
2022/12/07 03:27:39;;;;;;;55.13;43.93;;;4.50;99.90;;;;;;5060583;28;20209;-52
2022/12/07 03:30:11;;;;;;;72.40;55.50;;;4.50;99.90;;;;;;5069233;28;20312;-52
2022/12/07 03:32:45;;;;;;;56.50;43.80;;;4.50;99.90;;;;;;5068957;28;20426;-51
2022/12/07 03:35:18;;;;;;;129.03;59.23;;;4.50;99.90;;;;;;5069106;28;20292;-52
2022/12/07 03:37:50;;;;;;;68.10;49.63;;;4.50;99.90;;;;;;5065364;28;20293;-52
2022/12/07 03:40:24;;;;;;;79.80;46.93;;;4.50;99.90;;;;;;5066929;28;20213;-51
2022/12/07 03:42:54;;;;;;;104.03;55.37;;;4.50;99.90;;;;;;5068623;28;20222;-53
2022/12/07 03:45:27;;;;;;;104.97;58.83;;;4.50;99.90;;;;;;5068487;28;20232;-52
2022/12/07 03:48:06;;;;;;;98.47;47.33;;;4.50;99.90;;;;;;5068535;28;20284;-52
2022/12/07 03:50:41;;;;;;;54.63;41.73;;;4.50;99.90;;;;;;5066987;28;20806;-52
2022/12/07 03:53:15;;;;;;;176.73;71.70;;;4.50;99.90;;;;;;5068650;28;20238;-52
2022/12/07 03:55:46;;;;;;;66.27;53.37;;;4.60;99.90;;;;;;5069160;28;20340;-52
2022/12/07 03:58:17;;;;;;;55.20;35.53;;;4.60;99.90;;;;;;5068226;28;20239;-52
2022/12/07 04:00:46;;;;;;;45.63;33.67;;;4.60;99.90;;;;;;5066554;28;20675;-53
2022/12/07 04:03:15;;;;;;;60.90;43.87;;;4.60;99.90;;;;;;5068530;28;20330;-52
2022/12/07 04:05:44;;;;;;;70.00;51.90;;;4.60;99.90;;;;;;5068686;28;20220;-51
2022/12/07 04:08:12;;;;;;;66.97;50.77;;;4.50;99.90;;;;;;5068648;28;20323;-52
2022/12/07 04:10:41;;;;;;;74.93;49.20;;;4.60;99.90;;;;;;5068536;28;20209;-52
2022/12/07 04:13:09;;;;;;;89.00;43.43;;;4.60;99.90;;;;;;5067650;28;20250;-52
2022/12/07 04:15:37;;;;;;;64.53;41.73;;;4.70;99.90;;;;;;5062777;28;20680;-53
2022/12/07 04:18:05;;;;;;;66.40;51.27;;;4.70;99.90;;;;;;5067746;28;20646;-52
2022/12/07 04:20:34;;;;;;;84.10;53.70;;;4.70;99.90;;;;;;5068312;28;20305;-53
2022/12/07 04:23:02;;;;;;;41.70;35.27;;;4.70;99.90;;;;;;5068344;28;20205;-52
2022/12/07 04:25:30;;;;;;;62.47;36.83;;;4.70;99.90;;;;;;5068400;28;20752;-52
2022/12/07 04:27:58;;;;;;;116.70;66.03;;;4.70;99.90;;;;;;5068025;28;20229;-52
2022/12/07 04:30:26;;;;;;;157.90;87.87;;;4.70;99.90;;;;;;5068498;28;20298;-52
2022/12/07 04:32:54;;;;;;;73.53;55.80;;;4.70;99.90;;;;;;5058787;28;20243;-52
2022/12/07 04:35:23;;;;;;;121.27;68.17;;;4.70;99.90;;;;;;5066911;28;20327;-51
2022/12/07 04:37:52;;;;;;;97.13;51.73;;;4.70;99.90;;;;;;5068516;28;20644;-52
2022/12/07 04:40:20;;;;;;;53.57;35.10;;;4.70;99.90;;;;;;5065425;28;20242;-52
2022/12/07 04:42:48;;;;;;;49.97;42.17;;;4.70;99.90;;;;;;5061001;28;20202;-52
2022/12/07 04:45:16;;;;;;;56.40;46.53;;;4.70;99.90;;;;;;5063878;28;20300;-53
2022/12/07 04:47:44;;;;;;;59.33;47.17;;;4.70;99.90;;;;;;5068388;28;20296;-51
2022/12/07 04:50:12;;;;;;;46.77;41.73;;;4.80;99.90;;;;;;5056301;28;20241;-52
2022/12/07 04:52:40;;;;;;;159.23;67.33;;;4.70;99.90;;;;;;5068089;28;20240;-52
2022/12/07 04:55:10;;;;;;;78.63;43.63;;;4.70;99.90;;;;;;5068357;28;20268;-51
2022/12/07 04:57:38;;;;;;;48.90;39.00;;;4.70;99.90;;;;;;5067937;28;20271;-53
2022/12/07 05:00:07;;;;;;;103.83;52.13;;;4.70;99.90;;;;;;5071574;28;20628;-52
2022/12/07 05:02:35;;;;;;;94.77;59.07;;;4.80;99.90;;;;;;5071475;28;20288;-52
2022/12/07 05:05:04;;;;;;;66.43;40.37;;;4.80;99.90;;;;;;5071760;28;20205;-52
2022/12/07 05:07:32;;;;;;;41.10;31.47;;;4.80;99.90;;;;;;5071838;28;20722;-51
2022/12/07 05:10:00;;;;;;;38.17;27.57;;;4.80;99.90;;;;;;5071579;28;20274;-52
2022/12/07 05:12:30;;;;;;;39.90;29.20;;;4.80;99.90;;;;;;5071071;28;20214;-52
2022/12/07 05:14:58;;;;;;;46.53;39.63;;;4.90;99.90;;;;;;5070976;28;20206;-52
2022/12/07 05:17:27;;;;;;;89.70;33.67;;;4.90;99.90;;;;;;5071685;28;20292;-53
2022/12/07 05:19:55;;;;;;;41.40;36.90;;;4.90;99.90;;;;;;5058408;28;20283;-53
2022/12/07 05:22:25;;;;;;;33.40;25.13;;;4.80;99.90;;;;;;5065757;28;20290;-53
2022/12/07 05:24:53;;;;;;;34.47;27.27;;;4.70;99.90;;;;;;5070622;28;20204;-52
2022/12/07 05:27:21;;;;;;;34.03;25.97;;;4.80;99.90;;;;;;5069269;28;20295;-52
2022/12/07 05:29:52;;;;;;;43.90;33.40;;;4.80;99.90;;;;;;5068469;28;20312;-52
2022/12/07 05:32:20;;;;;;;50.70;43.87;;;4.70;99.90;;;;;;5069052;28;20268;-52
2022/12/07 05:34:48;;;;;;;124.17;61.50;;;4.70;99.90;;;;;;5067494;28;20297;-53
2022/12/07 05:37:16;;;;;;;40.73;33.67;;;4.70;99.90;;;;;;5068425;28;20227;-52
2022/12/07 05:39:44;;;;;;;84.90;38.53;;;4.70;99.90;;;;;;5070157;28;20224;-52
2022/12/07 05:42:12;;;;;;;36.03;32.43;;;4.80;99.90;;;;;;5069896;28;20740;-52
2022/12/07 05:44:41;;;;;;;34.87;25.87;;;4.70;99.90;;;;;;5069697;28;20241;-51
2022/12/07 05:47:11;;;;;;;69.50;48.00;;;4.80;99.90;;;;;;5070903;28;20758;-52
2022/12/07 05:49:39;;;;;;;26.40;23.80;;;4.80;99.90;;;;;;5071326;28;20230;-52
2022/12/07 05:52:07;;;;;;;49.80;33.50;;;4.70;99.90;;;;;;5070291;28;20765;-52
2022/12/07 05:54:35;;;;;;;69.07;47.07;;;4.70;99.90;;;;;;5071304;28;20292;-52
2022/12/07 05:57:03;;;;;;;33.00;22.40;;;4.70;99.90;;;;;;5058874;28;20296;-51
2022/12/07 05:59:31;;;;;;;56.07;35.00;;;4.70;99.90;;;;;;5071036;28;20261;-52
2022/12/07 06:02:00;;;;;;;21.83;19.53;;;4.70;99.90;;;;;;5070293;28;20304;-51
2022/12/07 06:04:31;;;;;;;27.33;23.60;;;4.60;99.90;;;;;;5070966;28;20223;-52
2022/12/07 06:06:59;;;;;;;29.87;22.73;;;4.50;99.90;;;;;;5070927;28;20247;-52
2022/12/07 06:09:29;;;;;;;41.87;28.50;;;4.50;99.90;;;;;;5063522;28;20230;-52
2022/12/07 06:14:44;;;;;;;22.77;19.77;;;4.50;99.90;;;;;;5070480;28;20287;-52
2022/12/07 06:17:13;;;;;;;34.10;22.70;;;4.40;99.90;;;;;;5070382;28;20300;-51
2022/12/07 06:19:42;;;;;;;64.47;34.27;;;4.40;99.90;;;;;;5070858;28;20224;-53
2022/12/07 06:22:11;;;;;;;64.87;41.70;;;4.30;99.90;;;;;;5069407;28;20709;-53
2022/12/07 06:24:40;;;;;;;34.53;28.50;;;4.20;99.90;;;;;;5070653;28;20211;-52
2022/12/07 06:27:09;;;;;;;80.77;40.37;;;4.20;99.90;;;;;;5070226;28;20736;-52
2022/12/07 06:29:37;;;;;;;56.87;43.73;;;4.20;99.90;;;;;;5063249;28;20308;-52
2022/12/07 06:32:06;;;;;;;39.77;35.30;;;4.10;99.90;;;;;;5070078;28;20263;-52
2022/12/07 06:34:34;;;;;;;44.97;38.87;;;4.20;99.90;;;;;;5069758;28;20262;-52
2022/12/07 06:37:04;;;;;;;71.33;46.60;;;4.20;99.90;;;;;;5067594;28;20646;-52
2022/12/07 06:39:32;;;;;;;33.03;26.17;;;4.20;99.90;;;;;;5064429;28;20260;-51
2022/12/07 06:42:00;;;;;;;94.50;42.93;;;4.20;99.90;;;;;;5068033;28;20292;-53
2022/12/07 06:44:28;;;;;;;143.50;60.90;;;4.30;99.90;;;;;;5069831;28;20215;-53
2022/12/07 06:46:57;;;;;;;39.43;30.20;;;4.30;99.90;;;;;;5069907;28;20295;-53
2022/12/07 06:49:45;;;;;;;24.53;20.60;;;4.30;99.90;;;;;;5066986;28;20228;-53
2022/12/07 06:52:14;;;;;;;71.67;38.63;;;4.30;99.90;;;;;;5069636;28;20355;-52
2022/12/07 06:54:42;;;;;;;44.00;35.00;;;4.30;99.90;;;;;;5069826;28;20326;-52
2022/12/07 06:57:10;;;;;;;67.90;45.67;;;4.40;99.90;;;;;;5069767;28;20247;-52
2022/12/07 06:59:38;;;;;;;62.00;45.57;;;4.40;99.90;;;;;;5065671;28;20260;-52
2022/12/07 07:02:06;;;;;;;87.67;39.10;;;4.40;99.90;;;;;;5060228;28;20211;-51
2022/12/07 07:04:35;;;;;;;35.10;31.57;;;4.40;99.90;;;;;;5069012;28;20339;-52
2022/12/07 07:07:03;;;;;;;44.07;27.37;;;4.30;99.90;;;;;;5069170;28;20298;-53
2022/12/07 07:09:32;;;;;;;48.23;41.03;;;4.40;99.90;;;;;;5069404;28;20773;-52
2022/12/07 07:12:00;;;;;;;53.60;34.53;;;4.40;99.90;;;;;;5068670;28;20258;-52
2022/12/07 07:14:28;;;;;;;45.07;33.90;;;4.30;99.90;;;;;;5069459;28;20596;-51
2022/12/07 07:16:56;;;;;;;53.47;32.10;;;4.30;99.90;;;;;;5069533;28;20209;-53
2022/12/07 07:19:25;;;;;;;45.93;34.97;;;4.30;99.90;;;;;;5069359;28;20235;-52
2022/12/07 07:21:52;;;;;;;47.40;31.17;;;4.30;99.90;;;;;;5068607;28;20300;-52
2022/12/07 07:24:21;;;;;;;25.07;22.07;;;4.20;99.90;;;;;;5069139;28;20215;-53
2022/12/07 07:26:50;;;;;;;29.77;26.87;;;4.20;99.90;;;;;;5068597;28;20215;-51
2022/12/07 07:29:18;;;;;;;36.80;27.97;;;4.20;99.90;;;;;;5069008;28;20255;-51
2022/12/07 07:31:46;;;;;;;51.07;40.73;;;4.20;99.90;;;;;;5068911;28;20296;-52
2022/12/07 07:34:14;;;;;;;50.43;37.00;;;4.20;99.90;;;;;;5069256;28;20316;-52
2022/12/07 07:36:42;;;;;;;58.40;41.07;;;4.30;99.90;;;;;;5067800;28;20205;-51
2022/12/07 07:39:12;;;;;;;52.37;46.67;;;4.30;99.90;;;;;;5069213;28;20314;-52
2022/12/07 07:41:40;;;;;;;33.10;27.97;;;4.40;99.90;;;;;;5069130;28;20291;-52
2022/12/07 07:44:10;;;;;;;44.90;40.10;;;4.40;99.90;;;;;;5065402;28;20288;-53
2022/12/07 07:46:38;;;;;;;66.97;43.20;;;4.40;99.90;;;;;;5065807;28;20243;-52
2022/12/07 07:49:07;;;;;;;69.23;39.13;;;4.40;99.90;;;;;;5069221;28;20235;-52
2022/12/07 07:51:35;;;;;;;38.30;28.73;;;4.40;99.90;;;;;;5068711;28;20212;-52
2022/12/07 07:54:03;;;;;;;24.97;19.27;;;4.40;99.90;;;;;;5059100;28;20264;-52
2022/12/07 07:56:31;;;;;;;69.20;49.83;;;4.40;99.90;;;;;;5058883;28;20216;-53
2022/12/07 07:58:59;;;;;;;38.60;32.93;;;4.50;99.90;;;;;;5054977;28;20313;-52
2022/12/07 08:01:29;;;;;;;31.23;28.03;;;4.50;99.90;;;;;;5059599;28;20713;-52
2022/12/07 08:03:57;;;;;;;28.40;25.30;;;4.50;99.90;;;;;;5067085;28;20201;-52
2022/12/07 08:06:25;;;;;;;40.03;34.20;;;4.50;99.90;;;;;;5068326;28;20311;-51
2022/12/07 08:08:59;;;;;;;38.93;34.70;;;4.50;99.90;;;;;;5068335;28;20242;-52
2022/12/07 08:11:27;;;;;;;34.80;24.90;;;4.50;99.90;;;;;;5079668;28;20204;-52
2022/12/07 08:13:55;;;;;;;32.33;29.53;;;4.40;99.90;;;;;;5071058;28;20319;-52
2022/12/07 08:16:23;;;;;;;34.50;30.17;;;4.40;99.90;;;;;;5068794;28;20299;-52
2022/12/07 08:18:52;;;;;;;80.90;48.47;;;4.30;99.90;;;;;;5068751;28;20236;-53
2022/12/07 08:21:21;;;;;;;30.40;26.57;;;4.30;99.90;;;;;;5067714;28;20296;-53
2022/12/07 08:23:49;;;;;;;29.57;25.40;;;4.30;99.90;;;;;;5056295;28;20287;-53
2022/12/07 08:26:17;;;;;;;41.33;27.23;;;4.30;99.90;;;;;;5068720;28;20309;-52
2022/12/07 08:28:45;;;;;;;47.77;34.40;;;4.20;99.90;;;;;;5068465;28;20749;-52
2022/12/07 08:31:16;;;;;;;46.57;33.17;;;4.30;99.90;;;;;;5062137;28;20220;-53
2022/12/07 08:33:46;;;;;;;43.57;38.63;;;4.20;99.90;;;;;;5069798;28;20820;-51
2022/12/07 08:36:16;;;;;;;34.00;25.47;;;4.30;99.90;;;;;;5070894;28;20247;-52
2022/12/07 08:38:44;;;;;;;38.30;28.83;;;4.20;99.90;;;;;;5069502;28;20264;-52
2022/12/07 08:41:33;;;;;;;51.30;45.67;;;4.30;99.90;;;;;;5057398;28;20218;-52
2022/12/07 08:44:01;;;;;;;50.83;42.20;;;4.40;99.90;;;;;;5071400;28;20291;-52
2022/12/07 08:46:36;;;;;;;76.23;41.07;;;4.50;99.90;;;;;;5070658;28;20239;-52
2022/12/07 08:49:07;;;;;;;60.57;45.40;;;4.50;99.90;;;;;;5072109;28;20314;-53
2022/12/07 08:51:37;;;;;;;37.13;32.63;;;4.70;99.90;;;;;;5071960;28;20232;-52
2022/12/07 08:54:08;;;;;;;36.23;26.97;;;4.70;99.90;;;;;;5071579;28;20263;-52
2022/12/07 08:56:37;;;;;;;69.23;35.63;;;4.80;99.90;;;;;;5069857;28;20292;-52
2022/12/07 08:59:06;;;;;;;56.90;27.37;;;4.80;99.90;;;;;;5072095;28;20283;-51
2022/12/07 09:01:34;;;;;;;49.37;35.63;;;5.00;99.90;;;;;;5071901;28;20210;-52
2022/12/07 09:04:02;;;;;;;129.80;62.47;;;5.10;99.90;;;;;;5067970;28;20197;-50
2022/12/07 09:06:30;;;;;;;37.57;33.57;;;5.10;99.90;;;;;;5071880;28;20248;-53
2022/12/07 09:09:01;;;;;;;41.80;33.87;;;5.20;99.90;;;;;;5060972;28;20260;-51
2022/12/07 09:11:29;;;;;;;36.83;25.13;;;5.20;99.90;;;;;;5071187;28;20209;-51
2022/12/07 09:13:57;;;;;;;35.60;22.67;;;5.20;99.90;;;;;;5070569;28;20261;-52
2022/12/07 09:16:25;;;;;;;47.20;37.30;;;5.20;99.90;;;;;;5071827;28;20233;-52
2022/12/07 09:18:53;;;;;;;68.60;37.03;;;5.20;99.90;;;;;;5071737;28;20283;-52
2022/12/07 09:21:21;;;;;;;1999.90;405.00;;;5.20;99.90;;;;;;5071413;28;20246;-52
2022/12/07 09:23:49;;;;;;;40.73;32.13;;;5.30;99.90;;;;;;5063257;28;20638;-52
2022/12/07 09:26:19;;;;;;;31.57;20.57;;;5.40;99.90;;;;;;5068460;28;20312;-52
2022/12/07 09:28:47;;;;;;;147.87;56.13;;;5.40;99.90;;;;;;5070946;28;20676;-52
2022/12/07 09:31:15;;;;;;;200.67;62.67;;;5.50;99.90;;;;;;5070850;28;20292;-52
2022/12/07 09:33:56;;;;;;;448.17;98.60;;;5.40;99.90;;;;;;5071027;28;20197;-51
2022/12/07 09:36:25;;;;;;;31.17;27.13;;;5.30;99.90;;;;;;5069944;28;20684;-52
2022/12/07 09:38:53;;;;;;;73.60;45.17;;;5.30;99.90;;;;;;5071569;28;20598;-53
2022/12/07 09:41:25;;;;;;;304.50;72.47;;;5.40;99.90;;;;;;5071179;28;20219;-52
2022/12/07 09:43:55;;;;;;;105.97;59.47;;;5.40;99.90;;;;;;5070989;28;20292;-51
2022/12/07 09:46:23;;;;;;;58.87;51.20;;;5.40;99.90;;;;;;5071518;28;20296;-51
2022/12/07 09:48:52;;;;;;;79.57;47.83;;;5.40;99.90;;;;;;5071156;28;20237;-52
2022/12/07 09:51:22;;;;;;;50.50;37.23;;;5.40;99.90;;;;;;5057512;28;20299;-52
2022/12/07 09:53:54;;;;;;;75.23;55.67;;;5.40;99.90;;;;;;5056029;28;20290;-50
2022/12/07 09:56:24;;;;;;;42.20;36.90;;;5.40;99.90;;;;;;5070182;28;20669;-52
2022/12/07 09:58:57;;;;;;;108.90;52.50;;;5.40;99.90;;;;;;5070882;28;20292;-52
2022/12/07 10:01:25;;;;;;;30.70;27.43;;;5.50;99.90;;;;;;5070546;28;20251;-53
2022/12/07 10:03:59;;;;;;;73.23;43.23;;;5.50;99.90;;;;;;5070191;28;20205;-52
2022/12/07 10:06:27;;;;;;;80.63;39.70;;;5.50;99.90;;;;;;5070073;28;20260;-52
2022/12/07 10:08:55;;;;;;;97.37;48.17;;;5.60;99.90;;;;;;5069823;28;20309;-52
2022/12/07 10:11:24;;;;;;;145.80;63.03;;;5.70;99.90;;;;;;5070297;28;20292;-52
2022/12/07 10:13:54;;;;;;;770.57;178.03;;;5.70;99.90;;;;;;5070329;28;20298;-52
2022/12/07 10:16:39;;;;;;;515.27;113.07;;;5.70;99.90;;;;;;5070177;28;20708;-51
2022/12/07 10:19:24;;;;;;;82.23;44.70;;;5.70;99.90;;;;;;5062446;28;20328;-51
2022/12/07 10:22:10;;;;;;;736.27;175.77;;;5.70;99.90;;;;;;5058795;28;20302;-52
2022/12/07 10:24:40;;;;;;;66.63;34.93;;;5.80;99.90;;;;;;5070103;28;20284;-52
2022/12/07 10:27:20;;;;;;;97.33;57.70;;;5.90;99.90;;;;;;5069888;28;20272;-52
2022/12/07 10:29:51;;;;;;;1236.13;221.33;;;5.90;99.90;;;;;;5070032;28;20267;-52
2022/12/07 10:32:31;;;;;;;578.23;122.53;;;5.90;99.90;;;;;;5069635;28;20296;-52
2022/12/07 10:35:23;;;;;;;664.97;148.47;;;5.80;99.90;;;;;;5070012;28;20267;-52
2022/12/07 10:37:52;;;;;;;1322.23;275.17;;;5.70;99.90;;;;;;5069560;28;20221;-52
2022/12/07 10:40:30;;;;;;;162.23;61.37;;;5.70;99.90;;;;;;5070242;28;20214;-51
2022/12/07 10:43:05;;;;;;;121.10;69.70;;;5.50;99.90;;;;;;5069444;28;20297;-52
2022/12/07 10:45:36;;;;;;;465.43;114.30;;;5.50;99.90;;;;;;5057672;28;20245;-52
2022/12/07 10:48:35;;;;;;;1221.63;227.40;;;5.40;99.90;;;;;;5063826;28;20591;-51
2022/12/07 10:51:10;;;;;;;51.63;25.40;;;5.30;99.90;;;;;;5070119;28;20328;-52
2022/12/07 10:53:54;;;;;;;310.97;72.00;;;5.30;99.90;;;;;;5069204;28;20225;-52
2022/12/07 10:56:45;;;;;;;474.40;121.83;;;5.40;99.90;;;;;;5068698;28;20338;-52
2022/12/07 10:59:40;;;;;;;207.93;80.53;;;5.30;99.90;;;;;;5069403;28;20240;-51
2022/12/07 11:02:22;;;;;;;131.10;65.17;;;5.30;99.90;;;;;;5066990;28;20288;-52
2022/12/07 11:05:02;;;;;;;84.17;50.93;;;5.30;99.90;;;;;;5069750;28;20209;-52
2022/12/07 11:07:44;;;;;;;456.17;123.40;;;5.30;99.90;;;;;;5069370;28;20923;-52
2022/12/07 11:10:19;;;;;;;304.43;122.30;;;5.20;99.90;;;;;;5069411;28;20213;-52
2022/12/07 11:13:13;;;;;;;64.20;40.57;;;5.40;99.90;;;;;;5056723;28;20215;-52
2022/12/07 11:16:13;;;;;;;91.73;52.23;;;5.50;99.90;;;;;;5065958;28;20241;-51
2022/12/07 11:18:50;;;;;;;493.17;146.43;;;5.70;99.90;;;;;;5067199;28;20230;-51
2022/12/07 11:21:25;;;;;;;91.83;46.90;;;5.90;99.90;;;;;;5068568;28;20271;-52
2022/12/07 11:24:01;;;;;;;103.50;47.53;;;6.00;99.90;;;;;;5069292;28;20202;-51
2022/12/07 11:27:02;;;;;;;266.27;91.87;;;6.00;99.90;;;;;;5069207;28;20225;-52
2022/12/07 11:29:50;;;;;;;183.50;68.97;;;6.00;99.90;;;;;;5068467;28;20316;-52
2022/12/07 11:32:30;;;;;;;353.07;124.10;;;6.10;99.90;;;;;;5068363;28;20243;-51
2022/12/07 11:35:08;;;;;;;51.23;23.87;;;6.20;99.90;;;;;;5058441;28;20204;-52
2022/12/07 11:37:40;;;;;;;150.63;79.80;;;6.30;99.90;;;;;;5069253;28;20213;-51
2022/12/07 11:40:21;;;;;;;690.10;266.97;;;6.30;99.90;;;;;;5069388;28;20196;-52
2022/12/07 11:42:56;;;;;;;46.60;33.03;;;6.20;99.90;;;;;;5068486;28;20243;-53
2022/12/07 11:45:29;;;;;;;108.03;52.47;;;6.20;99.90;;;;;;5054174;28;20255;-52
2022/12/07 11:48:02;;;;;;;87.80;50.23;;;6.30;99.90;;;;;;5064538;28;20323;-52
2022/12/07 11:50:37;;;;;;;760.53;233.90;;;6.40;99.90;;;;;;5055417;28;20233;-52
2022/12/07 11:53:11;;;;;;;242.67;93.77;;;6.40;99.90;;;;;;5068327;28;20228;-52
2022/12/07 11:55:45;;;;;;;704.70;205.50;;;6.30;99.90;;;;;;5055961;28;20310;-51
2022/12/07 11:58:36;;;;;;;315.83;108.13;;;6.30;99.90;;;;;;5068017;28;20732;-52
2022/12/07 12:01:15;;;;;;;102.03;71.13;;;6.20;99.90;;;;;;5058408;28;20239;-52
2022/12/07 12:03:48;;;;;;;623.93;176.33;;;6.20;99.90;;;;;;5061468;28;20284;-52
2022/12/07 12:06:21;;;;;;;105.63;82.20;;;6.10;99.90;;;;;;5068732;28;20212;-52
2022/12/07 12:08:54;;;;;;;241.37;97.53;;;6.10;99.90;;;;;;5070681;28;20326;-52
2022/12/07 12:12:10;;;;;;;181.83;73.47;;;6.10;99.90;;;;;;5072611;28;20210;-51
2022/12/07 12:15:14;;;;;;;941.83;232.63;;;6.10;99.90;;;;;;5049520;28;20574;-52
2022/12/07 12:18:21;;;;;;;1217.73;352.43;;;6.20;99.90;;;;;;5068774;28;20232;-53
2022/12/07 12:20:56;;;;;;;312.47;102.73;;;6.10;99.90;;;;;;5058760;28;20737;-52
2022/12/07 12:23:29;;;;;;;245.57;88.17;;;6.10;99.90;;;;;;5072374;28;20294;-53
2022/12/07 12:26:00;;;;;;;713.43;141.10;;;6.20;99.90;;;;;;5072824;28;20233;-52
2022/12/07 12:28:32;;;;;;;966.40;242.57;;;6.10;99.90;;;;;;5071483;28;20226;-52
2022/12/07 12:31:10;;;;;;;195.40;74.17;;;6.10;99.90;;;;;;5072855;28;20301;-52
2022/12/07 12:33:43;;;;;;;400.87;148.27;;;6.00;99.90;;;;;;5072082;28;20239;-53
2022/12/07 12:36:25;;;;;;;48.07;36.73;;;5.90;99.90;;;;;;5071653;28;20258;-53
2022/12/07 12:39:13;;;;;;;222.40;78.93;;;5.90;99.90;;;;;;5061019;28;20233;-52
2022/12/07 12:42:07;;;;;;;304.57;99.23;;;5.90;99.90;;;;;;5071929;28;20669;-53
2022/12/07 12:45:06;;;;;;;533.80;148.37;;;5.90;99.90;;;;;;5072410;28;20236;-52
2022/12/07 12:48:00;;;;;;;301.13;109.67;;;5.80;99.90;;;;;;5062442;28;20292;-52
2022/12/07 12:50:31;;;;;;;854.53;289.00;;;5.80;99.90;;;;;;5072324;28;20203;-51
2022/12/07 12:53:16;;;;;;;84.47;65.13;;;5.80;99.90;;;;;;5068387;28;20722;-52
2022/12/07 12:56:16;;;;;;;151.07;55.03;;;5.80;99.90;;;;;;5070721;28;20206;-52
2022/12/07 12:58:45;;;;;;;156.93;67.87;;;5.90;99.90;;;;;;5071043;28;20262;-52
2022/12/07 13:01:43;;;;;;;217.27;104.30;;;5.90;99.90;;;;;;5068952;28;20337;-52
2022/12/07 13:04:59;;;;;;;126.30;72.33;;;6.00;99.90;;;;;;5069801;28;20216;-53